createdAt,value
2022-10-14T00:01:34.225Z,13.30
2022-10-14T00:05:41.776Z,13.20
2022-10-14T00:09:46.380Z,13.20
2022-10-14T00:13:51.972Z,13.20
2022-10-14T00:17:54.800Z,13.30
2022-10-14T00:21:57.522Z,13.30
2022-10-14T00:26:00.236Z,13.30
2022-10-14T00:30:08.829Z,13.30
2022-10-14T00:34:12.940Z,13.30
2022-10-14T00:38:15.672Z,13.30
2022-10-14T00:42:18.363Z,13.20
2022-10-14T00:46:24.523Z,13.10
2022-10-14T00:50:35.345Z,13.10
2022-10-14T00:54:42.175Z,13.00
2022-10-14T00:58:45.638Z,13.00
2022-10-14T01:02:50.339Z,13.10
2022-10-14T01:07:01.883Z,13.00
2022-10-14T01:11:10.950Z,13.10
2022-10-14T01:15:21.340Z,13.10
2022-10-14T01:19:48.320Z,13.20
2022-10-14T01:24:14.497Z,13.20
2022-10-14T01:28:29.147Z,13.20
2022-10-14T01:32:37.667Z,13.00
2022-10-14T01:36:48.980Z,13.00
2022-10-14T01:40:57.545Z,13.00
2022-10-14T01:45:07.372Z,13.00
2022-10-14T01:49:20.807Z,12.90
2022-10-14T01:53:26.952Z,12.90
2022-10-14T01:57:35.552Z,12.90
2022-10-14T02:01:38.463Z,12.80
2022-10-14T02:05:48.190Z,12.90
2022-10-14T02:10:00.870Z,12.90
2022-10-14T02:14:17.497Z,12.80
2022-10-14T02:18:27.358Z,12.90
2022-10-14T02:22:36.540Z,12.90
2022-10-14T02:26:41.209Z,12.80
2022-10-14T02:30:48.593Z,12.80
2022-10-14T02:34:57.440Z,12.80
2022-10-14T02:39:03.057Z,12.70
2022-10-14T02:43:07.958Z,12.60
2022-10-14T02:47:10.673Z,12.70
2022-10-14T02:51:13.399Z,12.70
2022-10-14T02:55:17.650Z,12.70
2022-10-14T02:59:20.383Z,12.60
2022-10-14T03:03:23.078Z,12.60
2022-10-14T03:07:26.139Z,12.60
2022-10-14T03:11:32.845Z,12.60
2022-10-14T03:15:40.441Z,12.50
2022-10-14T03:19:45.252Z,12.60
2022-10-14T03:23:52.570Z,12.50
2022-10-14T03:28:02.637Z,12.50
2022-10-14T03:32:24.330Z,12.50
2022-10-14T03:37:05.970Z,12.40
2022-10-14T03:41:11.912Z,12.40
2022-10-14T03:45:16.315Z,12.40
2022-10-14T03:49:20.577Z,12.30
2022-10-14T03:53:23.510Z,12.30
2022-10-14T03:57:26.864Z,12.30
2022-10-14T04:01:33.958Z,12.30
2022-10-14T04:05:49.351Z,12.20
2022-10-14T04:09:57.286Z,12.20
2022-10-14T04:14:01.075Z,12.20
2022-10-14T04:18:07.535Z,12.20
2022-10-14T04:22:11.127Z,12.10
2022-10-14T04:26:13.874Z,12.20
2022-10-14T04:30:16.668Z,12.20
2022-10-14T04:34:27.857Z,12.20
2022-10-14T04:38:31.106Z,12.20
2022-10-14T04:42:39.855Z,12.30
2022-10-14T04:46:51.103Z,12.30
2022-10-14T04:50:58.284Z,12.30
2022-10-14T04:55:21.324Z,12.30
2022-10-14T04:59:24.023Z,12.30
2022-10-14T05:03:55.772Z,12.30
2022-10-14T05:08:00.274Z,12.30
2022-10-14T05:12:14.622Z,12.20
2022-10-14T05:16:24.405Z,12.10
2022-10-14T05:20:29.500Z,12.10
2022-10-14T05:24:35.127Z,12.10
2022-10-14T05:28:39.217Z,12.10
2022-10-14T05:32:43.046Z,12.00
2022-10-14T05:36:46.135Z,12.00
2022-10-14T05:40:54.637Z,12.10
2022-10-14T05:44:57.982Z,12.00
2022-10-14T05:49:05.838Z,12.00
2022-10-14T05:53:11.406Z,12.00
2022-10-14T05:57:19.718Z,12.00
2022-10-14T06:01:22.856Z,12.00
2022-10-14T06:05:26.795Z,12.10
2022-10-14T06:09:31.635Z,12.10
2022-10-14T06:13:35.888Z,12.20
2022-10-14T06:17:38.732Z,12.20
2022-10-14T06:21:41.641Z,12.20
2022-10-14T06:25:44.345Z,12.20
2022-10-14T06:29:48.373Z,12.20
2022-10-14T06:33:51.165Z,12.30
2022-10-14T06:37:53.939Z,12.40
2022-10-14T06:41:56.711Z,12.50
2022-10-14T06:46:00.915Z,12.60
2022-10-14T06:50:03.814Z,12.70
2022-10-14T06:54:07.221Z,12.80
2022-10-14T06:58:09.909Z,12.90
2022-10-14T07:02:14.219Z,13.20
2022-10-14T07:06:16.953Z,13.40
2022-10-14T07:10:19.694Z,13.30
2022-10-14T07:14:22.543Z,13.40
2022-10-14T07:18:26.681Z,13.40
2022-10-14T07:22:29.415Z,13.60
2022-10-14T07:26:32.539Z,13.70
2022-10-14T07:30:35.516Z,13.80
2022-10-14T07:34:39.712Z,13.90
2022-10-14T07:38:43.055Z,14.10
2022-10-14T07:42:45.970Z,14.00
2022-10-14T07:46:48.720Z,14.00
2022-10-14T07:50:52.918Z,13.80
2022-10-14T07:54:55.851Z,13.70
2022-10-14T07:58:59.903Z,13.80
2022-10-14T08:03:02.606Z,13.80
2022-10-14T08:07:06.771Z,13.80
2022-10-14T08:11:11.740Z,14.00
2022-10-14T08:15:14.450Z,14.10
2022-10-14T08:19:17.201Z,14.20
2022-10-14T08:23:21.591Z,14.30
2022-10-14T08:27:26.588Z,14.50
2022-10-14T08:31:29.862Z,14.80
2022-10-14T08:35:32.588Z,15.50
2022-10-14T08:39:36.678Z,17.90
2022-10-14T08:43:42.782Z,21.70
2022-10-14T08:47:47.387Z,24.10
2022-10-14T08:51:52.097Z,25.70
2022-10-14T08:56:00.177Z,24.10
2022-10-14T09:00:03.405Z,23.30
2022-10-14T09:04:08.308Z,21.80
2022-10-14T09:08:16.723Z,21.20
2022-10-14T09:12:25.022Z,23.40
2022-10-14T09:16:32.050Z,24.90
2022-10-14T09:20:34.859Z,28.10
2022-10-14T09:24:38.450Z,29.00
2022-10-14T09:28:45.298Z,28.90
2022-10-14T09:32:51.392Z,29.70
2022-10-14T09:36:54.653Z,30.50
2022-10-14T09:41:00.639Z,30.30
2022-10-14T09:45:09.716Z,31.60
2022-10-14T09:49:18.295Z,33.00
2022-10-14T09:53:29.047Z,33.10
2022-10-14T09:57:33.246Z,32.70
2022-10-14T10:01:40.700Z,32.50
2022-10-14T10:05:43.415Z,32.40
2022-10-14T10:09:55.935Z,32.60
2022-10-14T10:13:58.610Z,33.90
2022-10-14T10:18:04.123Z,34.00
2022-10-14T10:22:20.930Z,35.50
2022-10-14T10:26:27.234Z,35.90
2022-10-14T10:30:33.446Z,36.80
2022-10-14T10:34:58.634Z,38.60
2022-10-14T10:39:05.254Z,39.50
2022-10-14T10:43:45.039Z,39.60
2022-10-14T10:47:54.466Z,38.50
2022-10-14T10:52:04.272Z,35.40
2022-10-14T10:56:18.364Z,36.20
2022-10-14T11:04:35.214Z,36.40
2022-10-14T11:09:14.629Z,35.10
2022-10-14T11:13:25.632Z,32.50
2022-10-14T11:21:56.460Z,29.20
2022-10-14T11:26:06.757Z,28.90
2022-10-14T11:30:16.187Z,29.20
2022-10-14T11:34:29.743Z,28.10
2022-10-14T11:38:50.830Z,27.60
2022-10-14T11:43:09.787Z,27.20
2022-10-14T11:47:18.555Z,26.60
2022-10-14T11:51:25.697Z,27.50
2022-10-14T11:55:34.118Z,28.00
2022-10-14T11:59:48.938Z,27.70
2022-10-14T12:03:59.784Z,26.30
2022-10-14T12:08:17.290Z,25.40
2022-10-14T12:12:23.547Z,24.70
2022-10-14T12:16:28.043Z,24.20
2022-10-14T12:20:37.523Z,23.60
2022-10-14T12:24:45.435Z,22.90
2022-10-14T12:28:48.789Z,22.20
2022-10-14T12:33:03.652Z,22.20
2022-10-14T12:37:51.191Z,21.90
2022-10-14T12:41:56.185Z,21.60
2022-10-14T12:46:05.289Z,21.40
2022-10-14T12:50:29.882Z,21.40
2022-10-14T12:54:33.962Z,21.30
2022-10-14T12:58:41.627Z,21.10
2022-10-14T13:02:46.820Z,21.30
2022-10-14T13:07:40.107Z,21.20
2022-10-14T13:11:45.729Z,21.00
2022-10-14T13:15:52.961Z,20.80
2022-10-14T13:19:55.795Z,20.20
2022-10-14T13:24:02.571Z,20.20
2022-10-14T13:28:12.588Z,19.90
2022-10-14T13:32:30.854Z,19.50
2022-10-14T13:36:38.494Z,19.70
2022-10-14T13:40:46.646Z,19.60
2022-10-14T13:44:49.937Z,19.10
2022-10-14T13:48:56.544Z,18.90
2022-10-14T13:53:01.130Z,18.70
2022-10-14T14:01:37.006Z,18.30
2022-10-14T14:05:42.772Z,18.10
2022-10-14T14:09:51.159Z,18.10
2022-10-14T14:14:01.046Z,17.90
2022-10-14T14:18:04.276Z,17.90
2022-10-14T14:22:08.954Z,17.90
2022-10-14T14:26:19.270Z,17.60
2022-10-14T14:30:28.656Z,17.20
2022-10-14T14:34:31.455Z,17.40
2022-10-14T14:38:37.063Z,17.60
2022-10-14T14:42:42.162Z,17.60
2022-10-14T14:46:46.538Z,17.40
2022-10-14T14:50:49.871Z,17.20
2022-10-14T14:54:52.580Z,17.10
2022-10-14T14:58:59.018Z,17.20
2022-10-14T15:03:04.991Z,17.10
2022-10-14T15:07:21.045Z,17.10
2022-10-14T15:11:24.901Z,17.00
2022-10-14T15:15:30.695Z,17.00
2022-10-14T15:19:38.935Z,17.00
2022-10-14T15:23:45.838Z,17.00
2022-10-14T15:27:51.470Z,17.10
2022-10-14T15:32:07.380Z,17.00
2022-10-14T15:36:13.973Z,17.00
2022-10-14T15:40:19.710Z,17.00
2022-10-14T15:44:22.411Z,16.90
2022-10-14T15:48:25.190Z,16.80
2022-10-14T15:52:30.799Z,16.80
2022-10-14T15:56:33.705Z,16.70
2022-10-14T16:00:36.592Z,16.60
2022-10-14T16:05:00.539Z,16.50
2022-10-14T16:09:05.271Z,16.40
2022-10-14T16:13:07.959Z,16.40
2022-10-14T16:17:10.828Z,16.20
2022-10-14T16:21:17.112Z,16.20
2022-10-14T16:25:24.975Z,16.00
2022-10-14T16:29:27.971Z,16.00
2022-10-14T16:33:30.687Z,16.00
2022-10-14T16:37:33.508Z,15.90
2022-10-14T16:41:37.615Z,15.80
2022-10-14T16:45:40.342Z,15.80
2022-10-14T16:49:45.422Z,15.70
2022-10-14T16:53:48.989Z,15.80
2022-10-14T16:57:53.052Z,15.70
2022-10-14T17:01:56.106Z,15.70
2022-10-14T17:05:59.583Z,15.70
2022-10-14T17:10:02.476Z,15.60
2022-10-14T17:14:06.834Z,15.60
2022-10-14T17:18:12.374Z,15.40
2022-10-14T17:22:15.464Z,15.40
2022-10-14T17:26:20.208Z,15.30
2022-10-14T17:30:24.696Z,15.30
2022-10-14T17:34:27.464Z,15.30
2022-10-14T17:38:31.423Z,15.20
2022-10-14T17:42:34.128Z,15.20
2022-10-14T17:46:38.233Z,15.20
2022-10-14T17:50:41.347Z,15.10
2022-10-14T17:54:44.051Z,15.10
2022-10-14T17:58:46.846Z,15.10
2022-10-14T18:02:50.927Z,15.10
2022-10-14T18:06:54.094Z,15.10
2022-10-14T18:10:57.155Z,15.10
2022-10-14T18:15:00.214Z,15.10
2022-10-14T18:19:06.843Z,15.10
2022-10-14T18:23:10.264Z,15.00
2022-10-14T18:27:13.007Z,15.00
2022-10-14T18:31:17.255Z,15.10
2022-10-14T18:35:22.192Z,15.10
2022-10-14T18:39:25.200Z,15.00
2022-10-14T18:43:28.108Z,14.80
2022-10-14T18:47:30.769Z,14.80
2022-10-14T18:51:36.736Z,14.90
2022-10-14T18:55:39.598Z,14.90
2022-10-14T18:59:42.395Z,15.00
2022-10-14T19:03:47.182Z,15.00
2022-10-14T19:07:51.316Z,15.00
2022-10-14T19:11:54.320Z,15.00
2022-10-14T19:16:04.808Z,15.10
2022-10-14T19:20:08.465Z,15.10
2022-10-14T19:24:13.270Z,15.10
2022-10-14T19:28:18.220Z,15.20
2022-10-14T19:32:21.345Z,15.10
2022-10-14T19:36:26.390Z,15.00
2022-10-14T19:40:30.524Z,15.00
2022-10-14T19:44:34.220Z,15.00
2022-10-14T19:48:37.525Z,15.00
2022-10-14T19:52:40.359Z,15.00
2022-10-14T19:56:46.190Z,15.00
2022-10-14T20:00:48.895Z,15.00
2022-10-14T20:04:51.671Z,15.00
2022-10-14T20:08:57.426Z,15.00
2022-10-14T20:13:01.491Z,15.00
2022-10-14T20:17:06.694Z,15.00
2022-10-14T20:21:12.526Z,15.00
2022-10-14T20:25:18.490Z,15.00
2022-10-14T20:29:22.579Z,14.90
2022-10-14T20:33:25.674Z,14.90
2022-10-14T20:37:31.470Z,14.90
2022-10-14T20:41:34.372Z,14.80
2022-10-14T20:45:38.463Z,14.80
2022-10-14T20:49:41.201Z,14.70
2022-10-14T20:53:43.909Z,14.80
2022-10-14T20:57:47.342Z,14.90
2022-10-14T21:01:51.438Z,14.70
2022-10-14T21:05:54.122Z,14.80
2022-10-14T21:09:56.819Z,14.80
2022-10-14T21:14:01.399Z,14.80
2022-10-14T21:18:06.721Z,14.70
2022-10-14T21:22:10.020Z,14.70
2022-10-14T21:26:12.766Z,14.70
2022-10-14T21:30:15.496Z,14.70
2022-10-14T21:34:19.718Z,14.80
2022-10-14T21:38:22.438Z,14.70
2022-10-14T21:42:25.301Z,14.50
2022-10-14T21:46:28.851Z,14.60
2022-10-14T21:50:32.894Z,14.60
2022-10-14T21:54:35.636Z,14.60
2022-10-14T21:58:38.717Z,14.60
2022-10-14T22:02:41.437Z,14.60
2022-10-14T22:06:45.519Z,14.50
2022-10-14T22:10:48.211Z,14.50
2022-10-14T22:14:50.926Z,14.50
2022-10-14T22:18:54.091Z,14.40
2022-10-14T22:22:59.257Z,14.40
2022-10-14T22:27:01.988Z,14.30
2022-10-14T22:31:05.739Z,14.30
2022-10-14T22:35:09.576Z,14.30
2022-10-14T22:39:15.518Z,14.20
2022-10-14T22:43:18.210Z,14.20
2022-10-14T22:47:21.244Z,14.20
2022-10-14T22:55:34.774Z,14.10
2022-10-14T22:59:37.740Z,14.00
2022-10-14T23:03:41.310Z,14.10
2022-10-14T23:07:44.024Z,14.00
2022-10-14T23:11:48.225Z,14.00
2022-10-14T23:15:57.509Z,14.10
2022-10-14T23:20:00.299Z,14.10
2022-10-14T23:24:05.263Z,13.90
2022-10-14T23:28:09.686Z,13.90
2022-10-14T23:32:12.445Z,13.70
2022-10-14T23:36:16.190Z,13.90
2022-10-14T23:40:19.157Z,13.90
2022-10-14T23:44:23.214Z,13.90
2022-10-14T23:48:26.819Z,13.90
2022-10-14T23:52:29.711Z,13.90
2022-10-14T23:56:32.382Z,13.90
